Hakuho Maru — JDSS — position and weather

sailwx.info

Track history (hours):
 
Tides and Currents Weather Stations Pressure Air Temp Water Temp Dewpoint Dewpoint Depression Visibility Wind Speed Wind Dir Waves Ship Positions

Oceanographic research ship Hakuho Maru (Japan)

Detailed information on ship capabilities available from University of Delaware's Ocean Information Center.

Last reported at 2017-Dec-18 01:46 UTC. Time now 2017-Dec-18 18:20 UTC.
Position N 35°37' E 139°47'.

Length 100 m; beam 16.2 m; draft 6 m.

Type: Other ship. MMSI: 431010000.

Date/timePositionNaut miles runAvg speedWind from/ knotsBaromVisibWave heightAir tempDewpointWater temp
2017-Dec-18 01:46N 35°37' E 139°47'0 1.8
2017-Dec-18 01:30N 35°37' E 139°47'3 6.8
2017-Dec-18 01:01N 35°34' E 139°49'4 7.5
2017-Dec-18 00:31N 35°35' E 139°54'0 0.2
2017-Dec-17 23:58N 35°35' E 139°54'0 0.0
2017-Dec-17 22:55N 35°35' E 139°54'0 0.0
2017-Dec-17 22:22N 35°35' E 139°54'0 0.0
2017-Dec-17 21:37N 35°35' E 139°54'0 0.0
2017-Dec-17 21:13N 35°35' E 139°54'0 0.0
2017-Dec-17 20:55N 35°35' E 139°54'0 0.0
2017-Dec-17 20:13N 35°35' E 139°54'0 0.0
2017-Dec-17 19:52N 35°35' E 139°54'0 0.0
2017-Dec-17 19:19N 35°35' E 139°54'0 0.0
2017-Dec-17 18:58N 35°35' E 139°54'0 0.0
2017-Dec-17 18:28N 35°35' E 139°54'0 0.0
2017-Dec-17 17:55N 35°35' E 139°54'0 0.0
2017-Dec-17 17:28N 35°35' E 139°54'0 0.0
2017-Dec-17 16:49N 35°35' E 139°54'0 0.0
2017-Dec-17 16:19N 35°35' E 139°54'0 0.1
2017-Dec-17 15:55N 35°35' E 139°54'0 0.0
2017-Dec-17 15:25N 35°35' E 139°54'0 0.1
2017-Dec-17 14:58N 35°35' E 139°54'0 0.0
2017-Dec-17 13:52N 35°35' E 139°54'0 0.0
2017-Dec-17 13:25N 35°35' E 139°54'0 0.1
2017-Dec-17 12:49N 35°35' E 139°54'0 0.0
2017-Dec-17 12:19N 35°35' E 139°54'0 0.0
2017-Dec-17 11:58N 35°35' E 139°54'0 0.0
2017-Dec-17 11:28N 35°35' E 139°54'0 0.0
2017-Dec-17 10:58N 35°35' E 139°54'0 0.0
2017-Dec-17 10:25N 35°35' E 139°54'0 0.0
2017-Dec-17 09:58N 35°35' E 139°54'0 0.0
2017-Dec-17 09:25N 35°35' E 139°54'0 0.0
2017-Dec-17 08:58N 35°35' E 139°54'0 0.0
2017-Dec-17 08:28N 35°35' E 139°54'0 0.1
2017-Dec-17 07:46N 35°35' E 139°54'0 0.1
2017-Dec-17 07:16N 35°35' E 139°54'0 0.1
2017-Dec-17 06:55N 35°35' E 139°54'0 0.1
2017-Dec-17 06:28N 35°35' E 139°54'0 0.4
2017-Dec-17 06:00N 35°35' E 139°54'3 6.8
2017-Dec-17 05:30N 35°32' E 139°53'613.0
2017-Dec-17 05:01N 35°26' E 139°49'612.8
2017-Dec-17 04:31N 35°21' E 139°45'611.6
2017-Dec-17 04:00N 35°15' E 139°47'713.4
2017-Dec-17 03:31N 35°08' E 139°46'713.1
2017-Dec-17 03:00N 35°04' E 139°40'714.2
2017-Dec-17 02:30N 35°06' E 139°32'714.0
2017-Dec-17 02:00N 35°09' E 139°23'0 1.0
2017-Dec-17 01:31N 35°09' E 139°23'0 0.8
2017-Dec-17 01:00N 35°09' E 139°23'0 0.2
2017-Dec-17 00:31N 35°09' E 139°24'0 0.2
2017-Dec-17 00:01N 35°09' E 139°24'0 0.3
2017-Dec-16 23:31N 35°09' E 139°24'0 0.3
2017-Dec-16 23:00N 35°09' E 139°24'0 0.1
2017-Dec-16 22:30N 35°09' E 139°24'0 0.1
2017-Dec-16 22:00N 35°09' E 139°24'0 0.4
2017-Dec-16 21:30N 35°09' E 139°24'0 0.2
2017-Dec-16 21:01N 35°09' E 139°24'0 0.8
2017-Dec-16 20:30N 35°09' E 139°24'0 0.3
2017-Dec-16 20:00N 35°09' E 139°24'0 0.1
2017-Dec-16 19:30N 35°09' E 139°24'0 0.2
2017-Dec-16 19:00N 35°09' E 139°24'0 0.1
2017-Dec-16 18:30N 35°09' E 139°24'0 0.6
2017-Dec-16 18:00N 35°09' E 139°25'0 0.4
2017-Dec-16 17:30N 35°09' E 139°25'612.9
2017-Dec-16 17:00N 35°05' E 139°31'612.6
2017-Dec-16 16:30N 35°01' E 139°36'612.1
2017-Dec-16 16:00N 34°56' E 139°42'612.7
2017-Dec-16 15:31N 34°52' E 139°47'18 8.7
2017-Dec-16 13:25N 34°53' E 140°10'6 5.4
2017-Dec-16 12:21N 34°56' E 140°16'  
Track history (hours):
 
Tides and Currents Weather Stations Pressure Air Temp Water Temp Dewpoint Dewpoint Depression Visibility Wind Speed Wind Dir Waves Ship Positions

Oceanographic research ship Hakuho Maru (Japan)

Detailed information on ship capabilities available from University of Delaware's Ocean Information Center.

Last reported at 2017-Dec-18 01:46 UTC. Time now 2017-Dec-18 18:20 UTC.
Position N 35°37' E 139°47'.

Length 100 m; beam 16.2 m; draft 6 m.

Type: Other ship. MMSI: 431010000.

Date/timePositionNaut miles runAvg speedWind from/ knotsBaromVisibWave heightAir tempDewpointWater temp
2017-Dec-18 01:46N 35°37' E 139°47'0 1.8
2017-Dec-18 01:30N 35°37' E 139°47'3 6.8
2017-Dec-18 01:01N 35°34' E 139°49'4 7.5
2017-Dec-18 00:31N 35°35' E 139°54'0 0.2
2017-Dec-17 23:58N 35°35' E 139°54'0 0.0
2017-Dec-17 22:55N 35°35' E 139°54'0 0.0
2017-Dec-17 22:22N 35°35' E 139°54'0 0.0
2017-Dec-17 21:37N 35°35' E 139°54'0 0.0
2017-Dec-17 21:13N 35°35' E 139°54'0 0.0
2017-Dec-17 20:55N 35°35' E 139°54'0 0.0
2017-Dec-17 20:13N 35°35' E 139°54'0 0.0
2017-Dec-17 19:52N 35°35' E 139°54'0 0.0
2017-Dec-17 19:19N 35°35' E 139°54'0 0.0
2017-Dec-17 18:58N 35°35' E 139°54'0 0.0
2017-Dec-17 18:28N 35°35' E 139°54'0 0.0
2017-Dec-17 17:55N 35°35' E 139°54'0 0.0
2017-Dec-17 17:28N 35°35' E 139°54'0 0.0
2017-Dec-17 16:49N 35°35' E 139°54'0 0.0
2017-Dec-17 16:19N 35°35' E 139°54'0 0.1
2017-Dec-17 15:55N 35°35' E 139°54'0 0.0
2017-Dec-17 15:25N 35°35' E 139°54'0 0.1
2017-Dec-17 14:58N 35°35' E 139°54'0 0.0
2017-Dec-17 13:52N 35°35' E 139°54'0 0.0
2017-Dec-17 13:25N 35°35' E 139°54'0 0.1
2017-Dec-17 12:49N 35°35' E 139°54'0 0.0
2017-Dec-17 12:19N 35°35' E 139°54'0 0.0
2017-Dec-17 11:58N 35°35' E 139°54'0 0.0
2017-Dec-17 11:28N 35°35' E 139°54'0 0.0
2017-Dec-17 10:58N 35°35' E 139°54'0 0.0
2017-Dec-17 10:25N 35°35' E 139°54'0 0.0
2017-Dec-17 09:58N 35°35' E 139°54'0 0.0
2017-Dec-17 09:25N 35°35' E 139°54'0 0.0
2017-Dec-17 08:58N 35°35' E 139°54'0 0.0
2017-Dec-17 08:28N 35°35' E 139°54'0 0.1
2017-Dec-17 07:46N 35°35' E 139°54'0 0.1
2017-Dec-17 07:16N 35°35' E 139°54'0 0.1
2017-Dec-17 06:55N 35°35' E 139°54'0 0.1
2017-Dec-17 06:28N 35°35' E 139°54'0 0.4
2017-Dec-17 06:00N 35°35' E 139°54'3 6.8
2017-Dec-17 05:30N 35°32' E 139°53'613.0
2017-Dec-17 05:01N 35°26' E 139°49'612.8
2017-Dec-17 04:31N 35°21' E 139°45'611.6
2017-Dec-17 04:00N 35°15' E 139°47'713.4
2017-Dec-17 03:31N 35°08' E 139°46'713.1
2017-Dec-17 03:00N 35°04' E 139°40'714.2
2017-Dec-17 02:30N 35°06' E 139°32'714.0
2017-Dec-17 02:00N 35°09' E 139°23'0 1.0
2017-Dec-17 01:31N 35°09' E 139°23'0 0.8
2017-Dec-17 01:00N 35°09' E 139°23'0 0.2
2017-Dec-17 00:31N 35°09' E 139°24'0 0.2
2017-Dec-17 00:01N 35°09' E 139°24'0 0.3
2017-Dec-16 23:31N 35°09' E 139°24'0 0.3
2017-Dec-16 23:00N 35°09' E 139°24'0 0.1
2017-Dec-16 22:30N 35°09' E 139°24'0 0.1
2017-Dec-16 22:00N 35°09' E 139°24'0 0.4
2017-Dec-16 21:30N 35°09' E 139°24'0 0.2
2017-Dec-16 21:01N 35°09' E 139°24'0 0.8
2017-Dec-16 20:30N 35°09' E 139°24'0 0.3
2017-Dec-16 20:00N 35°09' E 139°24'0 0.1
2017-Dec-16 19:30N 35°09' E 139°24'0 0.2
2017-Dec-16 19:00N 35°09' E 139°24'0 0.1
2017-Dec-16 18:30N 35°09' E 139°24'0 0.6
2017-Dec-16 18:00N 35°09' E 139°25'0 0.4
2017-Dec-16 17:30N 35°09' E 139°25'612.9
2017-Dec-16 17:00N 35°05' E 139°31'612.6
2017-Dec-16 16:30N 35°01' E 139°36'612.1
2017-Dec-16 16:00N 34°56' E 139°42'612.7
2017-Dec-16 15:31N 34°52' E 139°47'18 8.7
2017-Dec-16 13:25N 34°53' E 140°10'6 5.4
2017-Dec-16 12:21N 34°56' E 140°16'  

Dump ship's entire track history